< < Back
Terminal Aerodrome Forecast


Current Version              Previous Versions:   1  2  3  4  5  6  7  8  9  

Terminal Aerodrome Forecast

557
FTUS42 KJAX 240538
TAFSSI
TAF
KSSI 240538Z 2406/2506 22005KT P6SM SCT250
     FM241700 14012KT P6SM SCT040
     FM250200 17006KT P6SM FEW040=

Latest METAR

189
SAUS70 KWBC 240556
MTRSSI
METAR KSSI 240553Z AUTO 22009KT 10SM CLR 28/24 A3003 RMK AO2 SLP170
T02830239 10300 20283 51005 $


USA.gov is the U.S. government's official web portal to all federal, state and local government web resources and services.